sensor_id;sensor_type;location;lat;lon;timestamp;pressure;altitude;pressure_sealevel;temperature;humidity
43621;BME280;29213;50.770;7.298;2023-06-04T00:00:43;101207.81;;;11.83;44.11
43621;BME280;29213;50.770;7.298;2023-06-04T00:03:08;101219.97;;;11.77;44.35
43621;BME280;29213;50.770;7.298;2023-06-04T00:05:34;101180.25;;;11.48;44.83
43621;BME280;29213;50.770;7.298;2023-06-04T00:07:59;101162.97;;;11.34;44.94
43621;BME280;29213;50.770;7.298;2023-06-04T00:10:25;101184.53;;;11.41;44.90
43621;BME280;29213;50.770;7.298;2023-06-04T00:12:50;101233.88;;;11.63;44.76
43621;BME280;29213;50.770;7.298;2023-06-04T00:15:15;101158.41;;;11.08;45.06
43621;BME280;29213;50.770;7.298;2023-06-04T00:17:42;101224.59;;;11.49;45.17
43621;BME280;29213;50.770;7.298;2023-06-04T00:20:07;101130.41;;;10.86;45.32
43621;BME280;29213;50.770;7.298;2023-06-04T00:22:33;101156.75;;;10.89;45.09
43621;BME280;29213;50.770;7.298;2023-06-04T00:24:58;101165.13;;;10.94;45.21
43621;BME280;29213;50.770;7.298;2023-06-04T00:27:24;101151.81;;;10.76;45.45
43621;BME280;29213;50.770;7.298;2023-06-04T00:29:49;101117.03;;;10.49;45.62
43621;BME280;29213;50.770;7.298;2023-06-04T00:32:15;101166.81;;;10.77;45.56
43621;BME280;29213;50.770;7.298;2023-06-04T00:34:40;101093.34;;;10.28;45.63
43621;BME280;29213;50.770;7.298;2023-06-04T00:37:05;101154.56;;;10.56;45.72
43621;BME280;29213;50.770;7.298;2023-06-04T00:39:31;101175.41;;;10.61;45.65
43621;BME280;29213;50.770;7.298;2023-06-04T00:41:57;101155.22;;;10.40;45.82
43621;BME280;29213;50.770;7.298;2023-06-04T00:44:22;101069.88;;;9.85;45.99
43621;BME280;29213;50.770;7.298;2023-06-04T00:46:51;101157.34;;;10.36;46.01
43621;BME280;29213;50.770;7.298;2023-06-04T00:49:18;101230.03;;;10.75;46.02
43621;BME280;29213;50.770;7.298;2023-06-04T00:51:44;101156.84;;;10.23;46.04
43621;BME280;29213;50.770;7.298;2023-06-04T00:54:10;101233.03;;;10.62;46.23
43621;BME280;29213;50.770;7.298;2023-06-04T00:56:38;101227.47;;;10.55;46.35
43621;BME280;29213;50.770;7.298;2023-06-04T00:59:08;101223.88;;;10.46;46.85
43621;BME280;29213;50.770;7.298;2023-06-04T01:04:04;101202.69;;;10.16;47.09
43621;BME280;29213;50.770;7.298;2023-06-04T01:08:59;101123.03;;;9.57;47.42
43621;BME280;29213;50.770;7.298;2023-06-04T01:11:35;101191.72;;;9.92;47.34
43621;BME280;29213;50.770;7.298;2023-06-04T01:14:05;101224.56;;;10.10;47.52
43621;BME280;29213;50.770;7.298;2023-06-04T01:27:38;101213.44;;;9.77;47.94
43621;BME280;29213;50.770;7.298;2023-06-04T01:30:06;101191.63;;;9.54;48.08
43621;BME280;29213;50.770;7.298;2023-06-04T01:32:33;101122.81;;;9.01;48.05
43621;BME280;29213;50.770;7.298;2023-06-04T01:34:59;101234.56;;;9.69;48.26
43621;BME280;29213;50.770;7.298;2023-06-04T01:37:25;101155.41;;;9.13;48.12
43621;BME280;29213;50.770;7.298;2023-06-04T01:39:51;101239.91;;;9.59;48.24
43621;BME280;29213;50.770;7.298;2023-06-04T01:42:16;101192.63;;;9.33;48.53
43621;BME280;29213;50.770;7.298;2023-06-04T01:44:42;101198.31;;;9.38;48.63
43621;BME280;29213;50.770;7.298;2023-06-04T01:47:07;101191.63;;;9.24;48.12
43621;BME280;29213;50.770;7.298;2023-06-04T01:49:33;101174.00;;;9.13;48.71
43621;BME280;29213;50.770;7.298;2023-06-04T01:51:58;101156.94;;;8.96;48.67
43621;BME280;29213;50.770;7.298;2023-06-04T01:54:23;101119.63;;;8.78;48.40
43621;BME280;29213;50.770;7.298;2023-06-04T01:56:49;101188.84;;;9.06;48.46
43621;BME280;29213;50.770;7.298;2023-06-04T01:59:15;101197.22;;;9.11;48.88
43621;BME280;29213;50.770;7.298;2023-06-04T02:01:41;101226.47;;;9.31;48.94
43621;BME280;29213;50.770;7.298;2023-06-04T02:04:07;101156.66;;;8.79;49.06
43621;BME280;29213;50.770;7.298;2023-06-04T02:06:32;101225.75;;;9.09;49.33
43621;BME280;29213;50.770;7.298;2023-06-04T02:08:58;101071.72;;;8.19;49.60
43621;BME280;29213;50.770;7.298;2023-06-04T02:11:23;101146.13;;;8.58;49.81
43621;BME280;29213;50.770;7.298;2023-06-04T02:13:48;101073.25;;;8.11;50.10
43621;BME280;29213;50.770;7.298;2023-06-04T02:16:14;101207.13;;;8.89;50.15
43621;BME280;29213;50.770;7.298;2023-06-04T02:18:39;101221.84;;;8.93;49.70
43621;BME280;29213;50.770;7.298;2023-06-04T02:21:05;101141.75;;;8.37;49.86
43621;BME280;29213;50.770;7.298;2023-06-04T02:23:31;101183.16;;;8.60;50.24
43621;BME280;29213;50.770;7.298;2023-06-04T02:25:56;101240.56;;;8.92;50.20
43621;BME280;29213;50.770;7.298;2023-06-04T02:28:22;101156.00;;;8.36;50.20
43621;BME280;29213;50.770;7.298;2023-06-04T02:30:47;101205.09;;;8.62;50.03
43621;BME280;29213;50.770;7.298;2023-06-04T02:33:13;101209.47;;;8.63;50.16
43621;BME280;29213;50.770;7.298;2023-06-04T02:35:38;101232.38;;;8.64;50.20
43621;BME280;29213;50.770;7.298;2023-06-04T02:38:05;101251.25;;;8.70;50.34
43621;BME280;29213;50.770;7.298;2023-06-04T02:40:30;101204.06;;;8.33;50.46
43621;BME280;29213;50.770;7.298;2023-06-04T02:42:56;101116.66;;;7.79;50.62
43621;BME280;29213;50.770;7.298;2023-06-04T02:45:25;101212.59;;;8.37;50.86
43621;BME280;29213;50.770;7.298;2023-06-04T02:47:50;101220.69;;;8.35;51.09
43621;BME280;29213;50.770;7.298;2023-06-04T02:50:16;101252.63;;;8.55;51.05
43621;BME280;29213;50.770;7.298;2023-06-04T02:52:42;101211.56;;;8.28;51.18
43621;BME280;29213;50.770;7.298;2023-06-04T02:55:08;101128.03;;;7.70;51.30
43621;BME280;29213;50.770;7.298;2023-06-04T02:57:34;101254.38;;;8.45;51.19
43621;BME280;29213;50.770;7.298;2023-06-04T03:00:01;101111.41;;;7.58;51.37
43621;BME280;29213;50.770;7.298;2023-06-04T03:02:27;101144.69;;;7.72;51.08
43621;BME280;29213;50.770;7.298;2023-06-04T03:04:53;101256.72;;;8.38;51.09
43621;BME280;29213;50.770;7.298;2023-06-04T03:07:20;101225.47;;;8.10;51.07
43621;BME280;29213;50.770;7.298;2023-06-04T03:09:48;101213.78;;;8.01;51.16
43621;BME280;29213;50.770;7.298;2023-06-04T03:12:14;101266.78;;;8.34;51.35
43621;BME280;29213;50.770;7.298;2023-06-04T03:14:39;101144.88;;;7.59;51.55
43621;BME280;29213;50.770;7.298;2023-06-04T03:17:05;101202.75;;;7.96;51.25
43621;BME280;29213;50.770;7.298;2023-06-04T03:19:39;101081.56;;;7.13;51.32
43621;BME280;29213;50.770;7.298;2023-06-04T03:22:06;101219.09;;;8.01;51.09
43621;BME280;29213;50.770;7.298;2023-06-04T03:24:36;101266.56;;;8.26;51.44
43621;BME280;29213;50.770;7.298;2023-06-04T03:27:03;101183.66;;;7.81;51.44
43621;BME280;29213;50.770;7.298;2023-06-04T03:29:29;101167.97;;;7.68;51.59
43621;BME280;29213;50.770;7.298;2023-06-04T03:31:56;101202.28;;;7.91;51.78
43621;BME280;29213;50.770;7.298;2023-06-04T03:34:21;101230.53;;;8.02;51.47
43621;BME280;29213;50.770;7.298;2023-06-04T03:36:51;101210.63;;;7.86;51.35
43621;BME280;29213;50.770;7.298;2023-06-04T03:39:16;101249.72;;;8.06;51.65
43621;BME280;29213;50.770;7.298;2023-06-04T03:41:42;101207.09;;;7.76;51.60
43621;BME280;29213;50.770;7.298;2023-06-04T03:44:08;101203.34;;;7.79;51.93
43621;BME280;29213;50.770;7.298;2023-06-04T03:46:33;101206.47;;;7.72;51.86
43621;BME280;29213;50.770;7.298;2023-06-04T03:48:59;101258.97;;;8.11;51.66
43621;BME280;29213;50.770;7.298;2023-06-04T03:51:24;101183.78;;;7.58;51.54
43621;BME280;29213;50.770;7.298;2023-06-04T03:53:50;101236.19;;;7.87;51.63
43621;BME280;29213;50.770;7.298;2023-06-04T03:56:15;101116.22;;;7.10;51.96
43621;BME280;29213;50.770;7.298;2023-06-04T03:58:41;101188.63;;;7.53;51.93
43621;BME280;29213;50.770;7.298;2023-06-04T04:01:06;101223.94;;;7.75;51.92
43621;BME280;29213;50.770;7.298;2023-06-04T04:03:33;101217.50;;;7.68;51.89
43621;BME280;29213;50.770;7.298;2023-06-04T04:06:00;101262.03;;;7.95;51.77
43621;BME280;29213;50.770;7.298;2023-06-04T04:08:25;101178.94;;;7.42;52.15
43621;BME280;29213;50.770;7.298;2023-06-04T04:11:00;101179.28;;;7.49;52.44
43621;BME280;29213;50.770;7.298;2023-06-04T04:13:26;101090.06;;;6.95;52.29
43621;BME280;29213;50.770;7.298;2023-06-04T04:15:51;101217.38;;;7.69;52.41
43621;BME280;29213;50.770;7.298;2023-06-04T04:18:20;101237.00;;;7.88;52.00
43621;BME280;29213;50.770;7.298;2023-06-04T04:20:46;101092.34;;;7.00;51.97
43621;BME280;29213;50.770;7.298;2023-06-04T04:23:12;101107.72;;;7.06;51.75
43621;BME280;29213;50.770;7.298;2023-06-04T04:25:38;101229.47;;;7.83;51.99
43621;BME280;29213;50.770;7.298;2023-06-04T04:28:04;101223.81;;;7.76;52.52
43621;BME280;29213;50.770;7.298;2023-06-04T04:30:33;101204.22;;;7.68;52.30
43621;BME280;29213;50.770;7.298;2023-06-04T04:33:03;101234.63;;;7.85;52.31
43621;BME280;29213;50.770;7.298;2023-06-04T04:35:30;101196.28;;;7.68;52.21
43621;BME280;29213;50.770;7.298;2023-06-04T04:38:01;101268.38;;;8.15;52.14
43621;BME280;29213;50.770;7.298;2023-06-04T04:40:30;101217.88;;;7.84;52.44
43621;BME280;29213;50.770;7.298;2023-06-04T04:42:56;101270.34;;;8.23;52.28
43621;BME280;29213;50.770;7.298;2023-06-04T04:45:22;101209.97;;;7.94;52.38
43621;BME280;29213;50.770;7.298;2023-06-04T04:47:47;101153.84;;;7.68;52.29
43621;BME280;29213;50.770;7.298;2023-06-04T04:50:13;101193.22;;;7.94;52.38
43621;BME280;29213;50.770;7.298;2023-06-04T04:52:38;101192.31;;;8.05;52.37
43621;BME280;29213;50.770;7.298;2023-06-04T04:55:04;101230.84;;;8.30;52.23
43621;BME280;29213;50.770;7.298;2023-06-04T04:57:30;101263.94;;;8.57;52.11
43621;BME280;29213;50.770;7.298;2023-06-04T04:59:55;101207.94;;;8.29;52.22
43621;BME280;29213;50.770;7.298;2023-06-04T05:02:20;101261.72;;;8.62;52.27
43621;BME280;29213;50.770;7.298;2023-06-04T05:04:46;101265.63;;;8.68;52.01
43621;BME280;29213;50.770;7.298;2023-06-04T05:07:11;101167.66;;;8.14;51.66
43621;BME280;29213;50.770;7.298;2023-06-04T05:09:37;101251.84;;;8.74;51.76
43621;BME280;29213;50.770;7.298;2023-06-04T05:12:02;101219.50;;;8.59;51.86
43621;BME280;29213;50.770;7.298;2023-06-04T05:14:28;101197.00;;;8.53;52.00
43621;BME280;29213;50.770;7.298;2023-06-04T05:16:54;101177.41;;;8.45;51.61
43621;BME280;29213;50.770;7.298;2023-06-04T05:19:22;101283.38;;;9.08;51.65
43621;BME280;29213;50.770;7.298;2023-06-04T05:21:48;101274.72;;;9.16;51.55
43621;BME280;29213;50.770;7.298;2023-06-04T05:24:14;101269.97;;;9.20;51.88
43621;BME280;29213;50.770;7.298;2023-06-04T05:26:40;101233.84;;;8.98;51.87
43621;BME280;29213;50.770;7.298;2023-06-04T05:29:05;101276.41;;;9.37;52.13
43621;BME280;29213;50.770;7.298;2023-06-04T05:31:31;101281.88;;;9.45;52.27
43621;BME280;29213;50.770;7.298;2023-06-04T05:34:00;101225.91;;;9.17;52.25
43621;BME280;29213;50.770;7.298;2023-06-04T05:36:30;101283.31;;;9.59;52.46
43621;BME280;29213;50.770;7.298;2023-06-04T05:38:56;101285.28;;;9.67;52.07
43621;BME280;29213;50.770;7.298;2023-06-04T05:41:25;101286.25;;;9.76;51.75
43621;BME280;29213;50.770;7.298;2023-06-04T05:43:51;101292.69;;;9.83;51.91
43621;BME280;29213;50.770;7.298;2023-06-04T05:46:17;101209.38;;;9.43;51.80
43621;BME280;29213;50.770;7.298;2023-06-04T05:48:42;101223.41;;;9.55;51.57
43621;BME280;29213;50.770;7.298;2023-06-04T05:51:08;101206.47;;;9.56;51.41
43621;BME280;29213;50.770;7.298;2023-06-04T05:53:33;101295.56;;;10.20;51.38
43621;BME280;29213;50.770;7.298;2023-06-04T05:55:59;101303.53;;;10.29;51.16
43621;BME280;29213;50.770;7.298;2023-06-04T05:58:24;101265.31;;;10.21;51.15
43621;BME280;29213;50.770;7.298;2023-06-04T06:00:50;101232.81;;;10.07;51.47
43621;BME280;29213;50.770;7.298;2023-06-04T06:03:16;101261.72;;;10.40;51.22
43621;BME280;29213;50.770;7.298;2023-06-04T06:05:42;101303.06;;;10.72;50.96
43621;BME280;29213;50.770;7.298;2023-06-04T06:08:08;101184.78;;;10.09;50.81
43621;BME280;29213;50.770;7.298;2023-06-04T06:10:33;101150.91;;;10.01;50.27
43621;BME280;29213;50.770;7.298;2023-06-04T06:12:59;101273.59;;;10.83;51.91
43621;BME280;29213;50.770;7.298;2023-06-04T06:15:26;101302.66;;;11.51;52.53
43621;BME280;29213;50.770;7.298;2023-06-04T06:17:51;101309.19;;;11.93;51.42
43621;BME280;29213;50.770;7.298;2023-06-04T06:20:18;101221.81;;;11.77;50.82
43621;BME280;29213;50.770;7.298;2023-06-04T06:22:44;101255.53;;;12.31;49.38
43621;BME280;29213;50.770;7.298;2023-06-04T06:25:09;101300.88;;;12.92;48.48
43621;BME280;29213;50.770;7.298;2023-06-04T06:27:38;101285.22;;;13.06;47.50
43621;BME280;29213;50.770;7.298;2023-06-04T06:30:06;101206.97;;;12.87;46.94
43621;BME280;29213;50.770;7.298;2023-06-04T06:32:31;101152.63;;;12.70;46.35
43621;BME280;29213;50.770;7.298;2023-06-04T06:34:57;101262.56;;;13.52;45.72
43621;BME280;29213;50.770;7.298;2023-06-04T06:37:22;101302.34;;;13.96;45.44
43621;BME280;29213;50.770;7.298;2023-06-04T06:39:48;101303.53;;;14.10;45.14
43621;BME280;29213;50.770;7.298;2023-06-04T06:42:13;101248.66;;;13.89;44.98
43621;BME280;29213;50.770;7.298;2023-06-04T06:44:38;101291.44;;;14.31;44.65
43621;BME280;29213;50.770;7.298;2023-06-04T06:47:04;101250.97;;;14.18;43.99
43621;BME280;29213;50.770;7.298;2023-06-04T06:49:29;101202.41;;;14.04;44.09
43621;BME280;29213;50.770;7.298;2023-06-04T06:51:55;101273.75;;;14.62;43.94
43621;BME280;29213;50.770;7.298;2023-06-04T06:54:20;101293.25;;;14.87;43.44
43621;BME280;29213;50.770;7.298;2023-06-04T06:56:48;101254.03;;;14.86;42.80
43621;BME280;29213;50.770;7.298;2023-06-04T06:59:15;101241.59;;;14.93;42.82
43621;BME280;29213;50.770;7.298;2023-06-04T07:01:41;101256.72;;;15.18;41.80
43621;BME280;29213;50.770;7.298;2023-06-04T07:04:06;101236.28;;;15.17;41.61
43621;BME280;29213;50.770;7.298;2023-06-04T07:06:33;101263.50;;;15.29;39.75
43621;BME280;29213;50.770;7.298;2023-06-04T07:08:58;101287.75;;;15.44;40.48
43621;BME280;29213;50.770;7.298;2023-06-04T07:11:24;101251.19;;;15.19;40.82
43621;BME280;29213;50.770;7.298;2023-06-04T07:13:51;101211.91;;;14.95;40.40
43621;BME280;29213;50.770;7.298;2023-06-04T07:16:16;101299.59;;;15.49;39.89
43621;BME280;29213;50.770;7.298;2023-06-04T07:18:43;101226.13;;;15.04;40.39
43621;BME280;29213;50.770;7.298;2023-06-04T07:21:08;101287.19;;;15.48;40.97
43621;BME280;29213;50.770;7.298;2023-06-04T07:23:33;101265.13;;;15.38;41.50
43621;BME280;29213;50.770;7.298;2023-06-04T07:25:59;101180.03;;;15.00;41.62
43621;BME280;29213;50.770;7.298;2023-06-04T07:28:24;101307.50;;;15.89;41.50
43621;BME280;29213;50.770;7.298;2023-06-04T07:30:50;101279.72;;;15.82;41.11
43621;BME280;29213;50.770;7.298;2023-06-04T07:33:15;101255.34;;;15.84;40.40
43621;BME280;29213;50.770;7.298;2023-06-04T07:35:41;101258.41;;;15.96;40.39
43621;BME280;29213;50.770;7.298;2023-06-04T07:38:06;101259.03;;;16.06;40.80
43621;BME280;29213;50.770;7.298;2023-06-04T07:40:31;101226.38;;;15.94;39.38
43621;BME280;29213;50.770;7.298;2023-06-04T07:42:57;101247.88;;;16.09;37.84
43621;BME280;29213;50.770;7.298;2023-06-04T07:45:22;101192.09;;;15.81;37.67
43621;BME280;29213;50.770;7.298;2023-06-04T07:47:48;101302.75;;;16.60;39.18
43621;BME280;29213;50.770;7.298;2023-06-04T07:50:13;101190.09;;;15.98;38.23
43621;BME280;29213;50.770;7.298;2023-06-04T07:52:38;101267.88;;;16.67;37.91
43621;BME280;29213;50.770;7.298;2023-06-04T07:55:04;101129.03;;;15.92;36.79
43621;BME280;29213;50.770;7.298;2023-06-04T07:57:30;101299.16;;;17.05;37.63
43621;BME280;29213;50.770;7.298;2023-06-04T07:59:56;101243.13;;;16.87;37.21
43621;BME280;29213;50.770;7.298;2023-06-04T08:02:22;101255.16;;;17.13;36.54
43621;BME280;29213;50.770;7.298;2023-06-04T08:04:47;101253.88;;;17.30;38.21
43621;BME280;29213;50.770;7.298;2023-06-04T08:07:13;101259.25;;;17.52;37.96
43621;BME280;29213;50.770;7.298;2023-06-04T08:09:38;101286.94;;;17.89;38.54
43621;BME280;29213;50.770;7.298;2023-06-04T08:12:04;101294.09;;;18.04;38.41
43621;BME280;29213;50.770;7.298;2023-06-04T08:14:29;101284.44;;;18.16;37.66
43621;BME280;29213;50.770;7.298;2023-06-04T08:16:55;101244.56;;;18.05;38.17
43621;BME280;29213;50.770;7.298;2023-06-04T08:19:21;101281.88;;;18.43;37.26
43621;BME280;29213;50.770;7.298;2023-06-04T08:21:46;101258.00;;;18.40;36.24
43621;BME280;29213;50.770;7.298;2023-06-04T08:24:12;101263.44;;;18.47;30.29
43621;BME280;29213;50.770;7.298;2023-06-04T08:26:38;101268.72;;;18.62;32.14
43621;BME280;29213;50.770;7.298;2023-06-04T08:29:05;101276.22;;;18.74;30.81
43621;BME280;29213;50.770;7.298;2023-06-04T08:31:31;101267.72;;;18.70;28.30
43621;BME280;29213;50.770;7.298;2023-06-04T08:33:57;101215.28;;;18.44;30.80
43621;BME280;29213;50.770;7.298;2023-06-04T08:36:22;101271.31;;;18.91;28.12
43621;BME280;29213;50.770;7.298;2023-06-04T08:38:47;101227.84;;;18.72;30.38
43621;BME280;29213;50.770;7.298;2023-06-04T08:41:30;101274.47;;;19.15;26.91
43621;BME280;29213;50.770;7.298;2023-06-04T08:43:58;101269.50;;;19.25;28.20
43621;BME280;29213;50.770;7.298;2023-06-04T08:46:26;101244.16;;;19.26;28.36
43621;BME280;29213;50.770;7.298;2023-06-04T08:48:53;101268.72;;;19.31;26.92
43621;BME280;29213;50.770;7.298;2023-06-04T08:51:19;101186.41;;;18.93;28.22
43621;BME280;29213;50.770;7.298;2023-06-04T08:53:45;101234.41;;;19.32;27.00
43621;BME280;29213;50.770;7.298;2023-06-04T08:56:15;101219.69;;;19.34;26.14
43621;BME280;29213;50.770;7.298;2023-06-04T08:58:43;101273.28;;;19.85;28.64
43621;BME280;29213;50.770;7.298;2023-06-04T09:01:08;101227.97;;;19.73;25.80
43621;BME280;29213;50.770;7.298;2023-06-04T09:03:36;101203.06;;;19.71;26.79
43621;BME280;29213;50.770;7.298;2023-06-04T09:06:03;101218.81;;;20.08;27.92
43621;BME280;29213;50.770;7.298;2023-06-04T09:08:31;101204.81;;;20.05;25.58
43621;BME280;29213;50.770;7.298;2023-06-04T09:11:00;101171.38;;;19.99;25.78
43621;BME280;29213;50.770;7.298;2023-06-04T09:13:28;101270.53;;;20.78;25.41
43621;BME280;29213;50.770;7.298;2023-06-04T09:16:03;101229.97;;;20.71;25.94
43621;BME280;29213;50.770;7.298;2023-06-04T09:18:29;101206.16;;;20.80;26.29
43621;BME280;29213;50.770;7.298;2023-06-04T09:21:02;101270.13;;;21.45;26.46
43621;BME280;29213;50.770;7.298;2023-06-04T09:23:27;101241.75;;;21.48;23.37
43621;BME280;29213;50.770;7.298;2023-06-04T09:25:53;101268.28;;;21.71;23.32
43621;BME280;29213;50.770;7.298;2023-06-04T09:28:20;101244.84;;;21.52;22.85
43621;BME280;29213;50.770;7.298;2023-06-04T09:30:52;101212.88;;;21.35;23.23
43621;BME280;29213;50.770;7.298;2023-06-04T09:33:18;101262.13;;;21.83;23.70
43621;BME280;29213;50.770;7.298;2023-06-04T09:35:56;101269.50;;;22.13;25.25
43621;BME280;29213;50.770;7.298;2023-06-04T09:38:21;101230.38;;;22.27;24.67
43621;BME280;29213;50.770;7.298;2023-06-04T09:40:47;101245.34;;;22.49;24.24
43621;BME280;29213;50.770;7.298;2023-06-04T09:43:23;101257.72;;;22.75;23.15
43621;BME280;29213;50.770;7.298;2023-06-04T09:45:49;101227.47;;;22.60;21.74
43621;BME280;29213;50.770;7.298;2023-06-04T09:48:21;101270.16;;;23.02;22.83
43621;BME280;29213;50.770;7.298;2023-06-04T09:50:47;101263.31;;;23.11;21.20
43621;BME280;29213;50.770;7.298;2023-06-04T09:53:17;101259.56;;;23.24;23.11
43621;BME280;29213;50.770;7.298;2023-06-04T09:55:43;101261.13;;;23.44;20.87
43621;BME280;29213;50.770;7.298;2023-06-04T09:58:10;101204.47;;;23.05;21.71
43621;BME280;29213;50.770;7.298;2023-06-04T10:00:37;101224.34;;;23.17;20.41
43621;BME280;29213;50.770;7.298;2023-06-04T10:03:03;101258.19;;;23.57;20.55
43621;BME280;29213;50.770;7.298;2023-06-04T10:05:32;101262.22;;;23.79;20.30
43621;BME280;29213;50.770;7.298;2023-06-04T10:08:04;101220.09;;;23.45;20.33
43621;BME280;29213;50.770;7.298;2023-06-04T10:10:34;101241.66;;;23.59;20.01
43621;BME280;29213;50.770;7.298;2023-06-04T10:13:07;101259.38;;;23.73;21.80
43621;BME280;29213;50.770;7.298;2023-06-04T10:15:35;101259.50;;;23.91;22.02
43621;BME280;29213;50.770;7.298;2023-06-04T10:18:02;101253.56;;;23.94;20.18
43621;BME280;29213;50.770;7.298;2023-06-04T10:20:28;101200.28;;;23.45;19.85
43621;BME280;29213;50.770;7.298;2023-06-04T10:22:54;101219.78;;;23.66;20.13
43621;BME280;29213;50.770;7.298;2023-06-04T10:25:20;101253.84;;;23.92;20.02
43621;BME280;29213;50.770;7.298;2023-06-04T10:27:46;101223.00;;;23.74;21.55
43621;BME280;29213;50.770;7.298;2023-06-04T10:30:12;101195.53;;;23.76;21.73
43621;BME280;29213;50.770;7.298;2023-06-04T10:32:38;101195.44;;;23.83;20.14
43621;BME280;29213;50.770;7.298;2023-06-04T10:35:04;101247.19;;;24.24;21.85
43621;BME280;29213;50.770;7.298;2023-06-04T10:37:32;101246.88;;;24.49;20.49
43621;BME280;29213;50.770;7.298;2023-06-04T10:39:58;101137.31;;;24.01;21.26
43621;BME280;29213;50.770;7.298;2023-06-04T10:42:25;101210.59;;;24.78;21.08
43621;BME280;29213;50.770;7.298;2023-06-04T10:44:52;101247.50;;;24.98;18.33
43621;BME280;29213;50.770;7.298;2023-06-04T10:47:26;101244.09;;;24.90;19.09
43621;BME280;29213;50.770;7.298;2023-06-04T10:49:53;101228.19;;;24.99;19.09
43621;BME280;29213;50.770;7.298;2023-06-04T10:52:19;101230.09;;;25.16;19.34
43621;BME280;29213;50.770;7.298;2023-06-04T10:54:45;101196.91;;;25.02;20.69
43621;BME280;29213;50.770;7.298;2023-06-04T10:57:13;101116.34;;;24.43;20.83
43621;BME280;29213;50.770;7.298;2023-06-04T10:59:39;101206.38;;;25.16;20.11
43621;BME280;29213;50.770;7.298;2023-06-04T11:02:08;101237.34;;;25.44;19.80
43621;BME280;29213;50.770;7.298;2023-06-04T11:04:35;101239.25;;;25.44;19.28
43621;BME280;29213;50.770;7.298;2023-06-04T11:07:06;101174.03;;;25.03;18.20
43621;BME280;29213;50.770;7.298;2023-06-04T11:09:47;101227.47;;;25.55;20.53
43621;BME280;29213;50.770;7.298;2023-06-04T11:12:13;101227.09;;;25.69;21.12
43621;BME280;29213;50.770;7.298;2023-06-04T11:14:39;101201.97;;;25.67;19.93
43621;BME280;29213;50.770;7.298;2023-06-04T11:17:12;101175.66;;;25.55;17.62
43621;BME280;29213;50.770;7.298;2023-06-04T11:19:38;101182.81;;;25.62;17.61
43621;BME280;29213;50.770;7.298;2023-06-04T11:22:05;101127.88;;;24.96;17.45
43621;BME280;29213;50.770;7.298;2023-06-04T11:24:32;101186.47;;;25.33;17.08
43621;BME280;29213;50.770;7.298;2023-06-04T11:26:57;101213.38;;;25.64;16.79
43621;BME280;29213;50.770;7.298;2023-06-04T11:29:26;101203.06;;;25.66;17.53
43621;BME280;29213;50.770;7.298;2023-06-04T11:31:51;101157.72;;;25.59;19.08
43621;BME280;29213;50.770;7.298;2023-06-04T11:34:27;101209.38;;;26.11;20.19
43621;BME280;29213;50.770;7.298;2023-06-04T11:36:53;101201.09;;;26.06;18.11
43621;BME280;29213;50.770;7.298;2023-06-04T11:39:20;101168.19;;;25.90;18.60
43621;BME280;29213;50.770;7.298;2023-06-04T11:41:45;101093.31;;;25.36;16.36
43621;BME280;29213;50.770;7.298;2023-06-04T11:44:12;101211.47;;;26.04;17.67
43621;BME280;29213;50.770;7.298;2023-06-04T11:46:42;101210.63;;;26.03;17.02
43621;BME280;29213;50.770;7.298;2023-06-04T11:49:12;101216.28;;;25.96;17.27
43621;BME280;29213;50.770;7.298;2023-06-04T11:51:48;101181.84;;;25.90;18.72
43621;BME280;29213;50.770;7.298;2023-06-04T11:54:15;101207.75;;;26.10;18.09
43621;BME280;29213;50.770;7.298;2023-06-04T11:56:42;101159.38;;;25.60;17.04
43621;BME280;29213;50.770;7.298;2023-06-04T11:59:13;101143.50;;;25.57;17.85
43621;BME280;29213;50.770;7.298;2023-06-04T12:01:42;101209.97;;;26.13;17.28
43621;BME280;29213;50.770;7.298;2023-06-04T12:04:15;101197.06;;;25.86;17.00
43621;BME280;29213;50.770;7.298;2023-06-04T12:07:00;101201.44;;;25.87;18.66
43621;BME280;29213;50.770;7.298;2023-06-04T12:09:29;101209.06;;;25.85;17.68
43621;BME280;29213;50.770;7.298;2023-06-04T12:12:06;101152.81;;;25.62;18.82
43621;BME280;29213;50.770;7.298;2023-06-04T12:14:32;101191.66;;;25.91;17.88
43621;BME280;29213;50.770;7.298;2023-06-04T12:19:24;101203.53;;;25.80;18.28
43621;BME280;29213;50.770;7.298;2023-06-04T12:22:05;101192.53;;;25.74;18.87
43621;BME280;29213;50.770;7.298;2023-06-04T12:24:46;101196.44;;;25.44;17.74
43621;BME280;29213;50.770;7.298;2023-06-04T12:27:12;101193.75;;;25.27;18.96
43621;BME280;29213;50.770;7.298;2023-06-04T12:29:38;101164.84;;;25.09;19.57
43621;BME280;29213;50.770;7.298;2023-06-04T12:32:05;101187.38;;;25.21;20.14
43621;BME280;29213;50.770;7.298;2023-06-04T12:34:34;101184.00;;;25.14;20.75
43621;BME280;29213;50.770;7.298;2023-06-04T12:37:00;101188.78;;;24.90;19.22
43621;BME280;29213;50.770;7.298;2023-06-04T12:39:25;101156.72;;;24.63;18.86
43621;BME280;29213;50.770;7.298;2023-06-04T12:41:51;101187.34;;;24.41;18.67
43621;BME280;29213;50.770;7.298;2023-06-04T12:44:16;101143.63;;;23.90;18.75
43621;BME280;29213;50.770;7.298;2023-06-04T12:46:41;101119.19;;;23.78;19.10
43621;BME280;29213;50.770;7.298;2023-06-04T12:49:07;101145.16;;;23.97;19.62
43621;BME280;29213;50.770;7.298;2023-06-04T12:51:32;101167.59;;;23.93;18.57
43621;BME280;29213;50.770;7.298;2023-06-04T12:53:58;101188.16;;;24.00;18.96
43621;BME280;29213;50.770;7.298;2023-06-04T12:56:23;101138.84;;;23.68;19.72
43621;BME280;29213;50.770;7.298;2023-06-04T12:58:50;101180.66;;;23.79;18.48
43621;BME280;29213;50.770;7.298;2023-06-04T13:01:16;101175.56;;;23.46;18.36
43621;BME280;29213;50.770;7.298;2023-06-04T13:03:41;101139.63;;;23.32;20.02
43621;BME280;29213;50.770;7.298;2023-06-04T13:06:07;101116.75;;;23.16;21.57
43621;BME280;29213;50.770;7.298;2023-06-04T13:08:33;101176.84;;;23.56;19.18